Terminal Aerodrome Forecast
Issued by NWS Newport/Morehead City, NC

Home | Current Version | Previous Version | Text Only | Print | Product List | Glossary On
Versions: 1 2 3 4 5 6 7 8 9 10 11 12 13 14 15 16 17
615
FTUS42 KMHX 272325
TAFEWN
TAF
KEWN 272325Z 2800/2824 19007KT P6SM SCT025 BKN250
     FM280500 18004KT P6SM VCSH SCT030 OVC110
     FM280800 17007KT 5SM SHRA SCT015 OVC035
     FM281500 15010KT 4SM +SHRA OVC015=

USA.gov is the U.S. government's official web portal to all federal, state and local government web resources and services.